createdAt,value
2023-02-19T00:02:40.213Z,6.55
2023-02-19T00:08:48.970Z,6.58
2023-02-19T00:14:12.317Z,6.59
2023-02-19T00:20:16.336Z,6.63
2023-02-19T00:26:46.442Z,6.75
2023-02-19T00:32:51.108Z,6.60
2023-02-19T00:38:59.011Z,6.46
2023-02-19T00:46:00.251Z,6.35
2023-02-19T00:52:22.969Z,6.31
2023-02-19T00:58:28.839Z,6.27
2023-02-19T01:05:12.060Z,6.26
2023-02-19T01:11:57.509Z,6.24
2023-02-19T01:18:43.176Z,6.20
2023-02-19T01:25:46.913Z,6.15
2023-02-19T01:32:54.901Z,6.21
2023-02-19T01:40:08.501Z,6.17
2023-02-19T01:46:51.831Z,6.15
2023-02-19T01:53:51.539Z,6.12
2023-02-19T02:00:55.230Z,6.10
2023-02-19T02:07:56.692Z,6.08
2023-02-19T02:15:01.323Z,6.01
2023-02-19T02:22:01.543Z,5.98
2023-02-19T02:29:18.091Z,5.91
2023-02-19T02:36:30.428Z,5.85
2023-02-19T02:43:33.990Z,5.82
2023-02-19T02:50:37.510Z,5.91
2023-02-19T02:57:41.273Z,5.99
2023-02-19T03:04:47.556Z,6.05
2023-02-19T03:12:24.572Z,6.09
2023-02-19T03:19:06.388Z,6.09
2023-02-19T03:26:24.824Z,6.30
2023-02-19T03:33:52.440Z,6.32
2023-02-19T03:41:01.775Z,6.21
2023-02-19T03:48:08.705Z,6.11
2023-02-19T03:55:15.399Z,6.12
2023-02-19T04:02:29.082Z,6.14
2023-02-19T04:09:32.669Z,6.14
2023-02-19T04:16:36.422Z,6.15
2023-02-19T04:23:44.036Z,6.13
2023-02-19T04:30:51.470Z,6.12
2023-02-19T04:37:54.871Z,6.08
2023-02-19T04:44:57.249Z,6.06
2023-02-19T04:52:00.874Z,6.04
2023-02-19T04:59:04.470Z,6.03
2023-02-19T05:06:07.727Z,6.06
2023-02-19T05:13:11.316Z,6.10
2023-02-19T05:20:14.806Z,6.14
2023-02-19T05:27:18.360Z,6.16
2023-02-19T05:34:22.040Z,6.12
2023-02-19T05:41:25.711Z,6.13
2023-02-19T05:48:23.147Z,6.12
2023-02-19T05:55:28.875Z,6.11
2023-02-19T06:02:32.729Z,6.18
2023-02-19T06:09:37.458Z,6.30
2023-02-19T06:16:41.139Z,6.40
2023-02-19T06:23:49.217Z,6.49
2023-02-19T06:30:52.944Z,6.41
2023-02-19T06:37:57.767Z,6.29
2023-02-19T06:45:01.361Z,6.20
2023-02-19T06:52:04.028Z,6.17
2023-02-19T06:58:42.019Z,6.19
2023-02-19T07:05:46.823Z,6.39
2023-02-19T07:12:51.491Z,6.37
2023-02-19T07:19:55.080Z,6.39
2023-02-19T07:27:18.579Z,6.44
2023-02-19T07:34:46.183Z,6.47
2023-02-19T07:41:55.803Z,6.48
2023-02-19T07:48:52.884Z,6.51
2023-02-19T07:55:51.277Z,6.50
2023-02-19T08:02:56.020Z,6.48
2023-02-19T08:09:59.672Z,6.54
2023-02-19T08:17:03.518Z,6.65
2023-02-19T08:24:08.213Z,6.83
2023-02-19T08:31:13.984Z,6.97
2023-02-19T08:38:26.615Z,6.97
2023-02-19T08:45:30.316Z,6.93
2023-02-19T08:52:34.610Z,6.92
2023-02-19T08:59:38.379Z,6.86
2023-02-19T09:06:32.959Z,6.83
2023-02-19T09:13:22.055Z,6.80
2023-02-19T09:20:22.460Z,6.76
2023-02-19T09:27:19.125Z,6.70
2023-02-19T09:33:38.817Z,6.71
2023-02-19T09:40:33.667Z,6.67
2023-02-19T09:47:33.481Z,6.61
2023-02-19T09:54:10.831Z,6.68
2023-02-19T10:01:00.647Z,6.72
2023-02-19T10:07:53.762Z,6.65
2023-02-19T10:14:37.179Z,6.54
2023-02-19T10:21:26.099Z,6.56
2023-02-19T10:28:32.528Z,6.58
2023-02-19T10:35:18.335Z,6.48
2023-02-19T10:42:21.817Z,6.44
2023-02-19T10:49:34.728Z,6.61
2023-02-19T10:56:47.632Z,6.70
2023-02-19T11:03:54.051Z,7.05
2023-02-19T11:10:50.243Z,7.35
2023-02-19T11:17:40.744Z,7.67
2023-02-19T11:24:47.169Z,7.46
2023-02-19T11:31:40.233Z,7.35
2023-02-19T11:38:34.954Z,7.43
2023-02-19T11:45:49.384Z,7.42
2023-02-19T11:53:00.949Z,7.18
2023-02-19T12:00:07.648Z,6.87
2023-02-19T12:06:49.307Z,6.82
2023-02-19T12:13:24.798Z,6.63
2023-02-19T12:20:11.519Z,6.46
2023-02-19T12:27:37.132Z,6.31
2023-02-19T12:34:20.734Z,6.10
2023-02-19T12:41:57.274Z,5.76
2023-02-19T12:48:49.601Z,5.42
2023-02-19T12:55:53.165Z,5.18
2023-02-19T13:10:19.356Z,4.93
2023-02-19T13:17:29.833Z,4.90
2023-02-19T13:24:19.199Z,4.91
2023-02-19T13:31:06.720Z,4.76
2023-02-19T13:37:42.143Z,4.47
2023-02-19T13:44:47.274Z,4.34
2023-02-19T13:51:58.366Z,4.16
2023-02-19T13:59:16.026Z,4.02
2023-02-19T14:06:10.787Z,3.97
2023-02-19T14:13:07.276Z,4.02
2023-02-19T14:20:13.872Z,4.14
2023-02-19T14:27:10.632Z,4.27
2023-02-19T14:34:20.157Z,4.31
2023-02-19T14:41:42.513Z,4.18
2023-02-19T14:48:50.845Z,3.88
2023-02-19T14:55:57.476Z,3.74
2023-02-19T15:02:54.847Z,3.63
2023-02-19T15:09:37.982Z,3.56
2023-02-19T15:16:25.818Z,3.50
2023-02-19T15:23:27.490Z,3.43
2023-02-19T15:30:19.809Z,3.41
2023-02-19T15:37:12.931Z,3.40
2023-02-19T15:44:24.606Z,3.35
2023-02-19T15:51:16.177Z,3.18
2023-02-19T15:58:22.496Z,3.05
2023-02-19T16:05:25.757Z,3.00
2023-02-19T16:12:34.763Z,2.88
2023-02-19T16:19:39.939Z,2.70
2023-02-19T16:26:33.995Z,2.50
2023-02-19T16:33:59.286Z,2.35
2023-02-19T16:40:31.638Z,2.26
2023-02-19T16:46:43.947Z,2.24
2023-02-19T16:52:59.170Z,2.28
2023-02-19T16:59:30.356Z,2.30
2023-02-19T17:06:34.507Z,2.30
2023-02-19T17:13:08.467Z,2.28
2023-02-19T17:19:28.025Z,2.25
2023-02-19T17:26:30.743Z,2.27
2023-02-19T17:33:32.940Z,2.26
2023-02-19T17:40:35.968Z,2.20
2023-02-19T17:47:06.498Z,2.16
2023-02-19T17:53:55.877Z,2.11
2023-02-19T18:00:53.105Z,2.03
2023-02-19T18:07:27.615Z,1.89
2023-02-19T18:14:04.697Z,1.67
2023-02-19T18:20:40.785Z,1.48
2023-02-19T18:26:33.601Z,1.31
2023-02-19T18:31:36.982Z,1.16
2023-02-19T18:36:38.568Z,1.05
2023-02-19T18:41:40.171Z,0.98
2023-02-19T18:46:41.725Z,0.93
2023-02-19T18:51:43.633Z,0.87
2023-02-19T18:56:45.965Z,0.84
2023-02-19T19:01:47.334Z,0.78
2023-02-19T19:06:48.893Z,0.73
2023-02-19T19:12:49.953Z,0.68
2023-02-19T19:19:10.993Z,0.60
2023-02-19T19:25:32.002Z,0.51
2023-02-19T19:30:35.618Z,0.46
2023-02-19T19:35:36.930Z,0.38
2023-02-19T19:41:37.943Z,0.32
2023-02-19T19:47:59.111Z,0.28
2023-02-19T19:54:20.281Z,0.29
2023-02-19T20:00:43.827Z,0.38
2023-02-19T20:07:06.432Z,0.44
2023-02-19T20:13:27.809Z,0.49
2023-02-19T20:19:08.847Z,0.57
2023-02-19T20:24:16.345Z,0.63
2023-02-19T20:29:17.874Z,0.69
2023-02-19T20:35:19.010Z,0.73
2023-02-19T20:41:07.172Z,0.78
2023-02-19T20:47:18.350Z,0.82
2023-02-19T20:52:40.020Z,0.84
2023-02-19T20:58:41.294Z,0.83
2023-02-19T21:05:11.379Z,0.83
2023-02-19T21:11:12.386Z,0.84
2023-02-19T21:16:33.646Z,0.81
2023-02-19T21:22:34.665Z,0.81
2023-02-19T21:28:55.837Z,0.79
2023-02-19T21:35:16.863Z,0.72
2023-02-19T21:41:37.861Z,0.64
2023-02-19T21:47:39.062Z,0.61
2023-02-19T21:53:40.135Z,0.60
2023-02-19T22:00:01.340Z,0.63
2023-02-19T22:06:22.504Z,0.67
2023-02-19T22:11:27.545Z,0.65
2023-02-19T22:16:31.701Z,0.54
2023-02-19T22:21:33.223Z,0.48
2023-02-19T22:26:35.325Z,0.43
2023-02-19T22:31:36.854Z,0.37
2023-02-19T22:36:39.822Z,0.30
2023-02-19T22:41:42.400Z,0.25
2023-02-19T22:46:54.582Z,0.23
2023-02-19T22:52:07.762Z,0.18
2023-02-19T22:57:09.405Z,0.11
2023-02-19T23:02:11.077Z,0.04
2023-02-19T23:07:12.565Z,0.00
2023-02-19T23:12:14.033Z,0.01
2023-02-19T23:17:15.268Z,0.04
2023-02-19T23:22:16.759Z,0.10
2023-02-19T23:27:18.085Z,0.18
2023-02-19T23:32:20.512Z,0.25
2023-02-19T23:37:22.013Z,0.28
2023-02-19T23:42:23.485Z,0.27
2023-02-19T23:47:26.037Z,0.29
2023-02-19T23:52:27.634Z,0.32
2023-02-19T23:57:28.946Z,0.34
